Time;durP1;ratioP1;P1;durP2;ratioP2;P2;SDS_P1;SDS_P2;PMS_P1;PMS_P2;Temp;Humidity;BMP_temperature;BMP_pressure;BME280_temperature;BME280_humidity;BME280_pressure;Samples;Min_cycle;Max_cycle;Signal;HPM_P1;HPM_P2
2022/05/09 00:01:32;;;;;;;15.88;7.15;;;;;;;9.13;97.74;97897.44;5055771;28;20086;-89
2022/05/09 00:03:58;;;;;;;9.32;5.78;;;;;;;9.10;98.30;97908.25;5055392;28;20031;-87
2022/05/09 00:06:24;;;;;;;14.88;5.78;;;;;;;9.00;100.00;97916.78;5055347;28;20054;-88
2022/05/09 00:08:50;;;;;;;14.95;5.50;;;;;;;9.01;100.00;97919.38;5037867;28;20427;-87
2022/05/09 00:11:16;;;;;;;6.97;5.07;;;;;;;8.92;100.00;97913.66;5054570;28;20039;-90
2022/05/09 00:13:42;;;;;;;14.70;5.60;;;;;;;8.85;100.00;97885.53;5037943;28;20024;-87
2022/05/09 00:16:08;;;;;;;11.10;5.80;;;;;;;8.92;100.00;97911.00;5037278;28;20555;-88
2022/05/09 00:18:33;;;;;;;13.18;5.15;;;;;;;8.91;100.00;97907.44;5037582;28;20124;-88
2022/05/09 00:21:02;;;;;;;10.35;5.97;;;;;;;8.94;100.00;97904.63;5054113;28;20029;-88
2022/05/09 00:23:28;;;;;;;9.52;5.95;;;;;;;8.93;100.00;97918.03;5053706;28;20519;-88
2022/05/09 00:25:54;;;;;;;14.50;6.05;;;;;;;8.89;100.00;97911.97;5053948;28;20055;-88
2022/05/09 00:28:20;;;;;;;9.73;5.55;;;;;;;8.80;100.00;97912.44;5053222;28;20028;-87
2022/05/09 00:30:46;;;;;;;8.52;5.07;;;;;;;8.79;100.00;97924.06;5036654;28;20049;-87
2022/05/09 00:33:12;;;;;;;13.65;5.00;;;;;;;8.68;100.00;97923.69;5052986;28;20036;-88
2022/05/09 00:35:40;;;;;;;8.95;5.30;;;;;;;8.74;100.00;97925.22;5053498;28;20029;-88
2022/05/09 00:38:07;;;;;;;8.50;5.07;;;;;;;8.69;100.00;97925.44;5053731;28;20115;-87
2022/05/09 00:40:33;;;;;;;10.77;5.60;;;;;;;8.63;100.00;97926.59;5053528;28;20025;-87
2022/05/09 00:43:00;;;;;;;11.65;4.65;;;;;;;8.63;100.00;97926.59;5036477;28;20029;-88
2022/05/09 00:45:33;;;;;;;9.20;4.90;;;;;;;8.68;100.00;97929.91;5054352;28;20029;-88
2022/05/09 00:47:59;;;;;;;8.82;4.53;;;;;;;8.52;100.00;97917.41;5053471;28;20021;-88
2022/05/09 00:50:28;;;;;;;7.30;4.55;;;;;;;8.53;100.00;97930.63;5036763;28;20032;-88
2022/05/09 00:52:54;;;;;;;8.18;4.10;;;;;;;8.42;100.00;97921.44;5053626;28;20021;-88
2022/05/09 00:55:27;;;;;;;7.28;4.20;;;;;;;8.29;100.00;97925.59;5069988;28;20024;-87
2022/05/09 00:57:58;;;;;;;9.68;4.80;;;;;;;8.29;100.00;97923.81;5045075;28;20485;-87
2022/05/09 01:00:25;;;;;;;6.50;4.03;;;;;;;8.22;100.00;97905.47;5053038;28;20031;-88
2022/05/09 01:02:59;;;;;;;8.25;4.50;;;;;;;8.33;100.00;97919.19;5052848;28;20107;-86
2022/05/09 01:05:26;;;;;;;8.40;4.88;;;;;;;8.25;100.00;97910.66;5036528;28;20021;-86
2022/05/09 01:07:53;;;;;;;7.72;4.80;;;;;;;8.24;100.00;97916.94;5051750;28;20524;-86
2022/05/09 01:10:23;;;;;;;9.52;5.18;;;;;;;8.22;100.00;97929.44;5035947;28;20118;-87
2022/05/09 01:12:49;;;;;;;9.35;5.32;;;;;;;8.12;100.00;97911.22;5035653;28;20032;-87
2022/05/09 01:15:16;;;;;;;16.45;5.53;;;;;;;8.09;100.00;97911.38;5052884;28;20120;-87
2022/05/09 01:17:42;;;;;;;8.18;5.00;;;;;;;8.14;100.00;97920.03;5052736;28;20484;-87
2022/05/09 01:20:10;;;;;;;12.55;5.57;;;;;;;8.09;100.00;97921.19;5052583;28;20036;-87
2022/05/09 01:22:37;;;;;;;13.13;6.18;;;;;;;8.10;100.00;97926.41;5053231;28;20031;-86
2022/05/09 01:25:06;;;;;;;10.32;5.68;;;;;;;8.09;100.00;97921.19;5035560;28;20035;-88
2022/05/09 01:27:40;;;;;;;12.45;6.10;;;;;;;8.07;100.00;97918.56;5049691;28;20059;-87
2022/05/09 01:30:12;;;;;;;12.02;5.55;;;;;;;8.10;100.00;97926.41;5052997;28;20033;-88
2022/05/09 01:32:43;;;;;;;13.30;5.53;;;;;;;8.03;100.00;97918.75;5053320;28;20035;-89
2022/05/09 01:35:32;;;;;;;12.13;5.43;;;;;;;8.11;100.00;97930.81;5053956;28;20079;-89
2022/05/09 01:38:18;;;;;;;16.08;5.38;;;;;;;8.03;100.00;97927.63;5036269;28;20272;-88
2022/05/09 01:40:44;;;;;;;10.68;4.78;;;;;;;8.04;100.00;97937.34;5046113;28;20032;-88
2022/05/09 01:43:10;;;;;;;9.00;5.72;;;;;;;7.98;100.00;97926.97;5052881;28;20032;-88
2022/05/09 01:45:35;;;;;;;8.73;5.28;;;;;;;7.87;100.00;97907.97;5053018;28;20033;-88
2022/05/09 01:50:46;;;;;;;10.05;5.40;;;;;;;7.93;100.00;97925.47;5053202;28;20056;-88
2022/05/09 01:53:11;;;;;;;9.48;5.57;;;;;;;7.89;100.00;97922.06;5052123;28;20041;-88
2022/05/09 01:55:37;;;;;;;11.45;5.40;;;;;;;7.83;100.00;97925.03;5035994;28;20036;-86
2022/05/09 01:58:04;;;;;;;9.88;5.13;;;;;;;7.70;100.00;97913.19;5053131;28;20029;-85
2022/05/09 02:00:32;;;;;;;14.23;7.88;;;;;;;7.70;100.00;97930.94;5053814;28;20108;-87
2022/05/09 02:02:59;;;;;;;12.40;6.65;;;;;;;7.70;100.00;97923.81;5038907;28;20037;-88
2022/05/09 02:05:24;;;;;;;11.45;6.03;;;;;;;7.67;100.00;97923.97;5039012;28;20029;-88
2022/05/09 02:07:50;;;;;;;9.27;5.80;;;;;;;7.69;100.00;97924.75;5036035;28;20033;-88
2022/05/09 02:10:16;;;;;;;11.68;5.80;;;;;;;7.61;100.00;97913.59;5052629;28;20025;-87
2022/05/09 02:12:42;;;;;;;14.18;6.57;;;;;;;7.68;100.00;97936.34;5049044;28;20037;-88
2022/05/09 02:15:09;;;;;;;11.32;5.38;;;;;;;7.61;100.00;97924.25;5036604;28;20036;-87
2022/05/09 02:17:35;;;;;;;8.52;5.40;;;;;;;7.54;100.00;97933.41;5053375;28;20111;-88
2022/05/09 02:20:01;;;;;;;12.43;5.55;;;;;;;7.54;100.00;97938.75;5057082;28;20151;-88
2022/05/09 02:22:27;;;;;;;11.13;5.53;;;;;;;7.38;100.00;97933.22;5057596;28;20060;-88
2022/05/09 02:24:53;;;;;;;10.85;5.40;;;;;;;7.36;100.00;97939.53;5057369;28;20103;-88
2022/05/09 02:27:18;;;;;;;10.30;5.50;;;;;;;7.28;100.00;97942.53;5056054;28;20039;-85
2022/05/09 02:29:44;;;;;;;15.50;5.95;;;;;;;7.19;100.00;97944.72;5039799;28;20432;-87
2022/05/09 02:32:11;;;;;;;13.55;5.75;;;;;;;7.14;100.00;97947.56;5039858;28;20032;-87
2022/05/09 02:34:38;;;;;;;13.40;6.07;;;;;;;7.11;100.00;97938.88;5039851;28;20025;-87
2022/05/09 02:37:04;;;;;;;12.27;5.45;;;;;;;7.05;100.00;97940.84;5056590;28;20032;-87
2022/05/09 02:39:29;;;;;;;9.82;5.97;;;;;;;7.13;100.00;97944.97;5057092;28;20150;-88
2022/05/09 02:41:57;;;;;;;10.13;5.35;;;;;;;7.23;100.00;97946.34;5022849;28;20036;-88
2022/05/09 02:44:28;;;;;;;12.45;6.07;;;;;;;7.16;100.00;97942.19;5040602;28;20033;-88
2022/05/09 02:46:53;;;;;;;10.70;4.90;;;;;;;7.04;100.00;97925.78;5042758;28;20024;-86
2022/05/09 02:49:19;;;;;;;12.57;5.47;;;;;;;7.05;100.00;97938.19;5039635;28;20480;-88
2022/05/09 02:51:46;;;;;;;13.45;5.78;;;;;;;7.01;100.00;97933.06;5039082;28;20039;-87
2022/05/09 02:54:13;;;;;;;13.77;6.10;;;;;;;6.99;100.00;97933.13;5056494;28;20098;-87
2022/05/09 02:56:38;;;;;;;11.02;5.65;;;;;;;6.88;100.00;97927.38;5026146;28;20029;-87
2022/05/09 02:59:04;;;;;;;13.00;6.50;;;;;;;7.00;100.00;97948.16;5057223;28;20056;-86
2022/05/09 03:01:29;;;;;;;10.77;5.75;;;;;;;6.98;100.00;97939.34;5039669;28;20144;-88
2022/05/09 03:06:39;;;;;;;11.63;5.82;;;;;;;7.06;100.00;97939.03;5056544;28;20048;-87
2022/05/09 03:09:05;;;;;;;14.13;6.47;;;;;;;7.05;100.00;97938.19;5057424;28;20032;-87
2022/05/09 03:11:31;;;;;;;19.60;6.78;;;;;;;7.10;100.00;97945.97;5057570;28;20033;-88
2022/05/09 03:13:56;;;;;;;14.57;6.70;;;;;;;7.11;100.00;97944.19;5040248;28;20036;-87
2022/05/09 03:16:23;;;;;;;17.38;6.45;;;;;;;7.01;100.00;97947.19;5057109;28;20037;-88
2022/05/09 03:18:48;;;;;;;14.57;5.97;;;;;;;7.05;100.00;97942.63;5041059;28;20515;-88
2022/05/09 03:21:15;;;;;;;13.77;6.05;;;;;;;6.99;100.00;97933.13;5058054;28;20185;-87
2022/05/09 03:23:41;;;;;;;23.95;7.38;;;;;;;7.04;100.00;97948.91;5041255;28;20033;-87
2022/05/09 03:26:07;;;;;;;32.30;17.23;;;;;;;7.08;100.00;97955.78;5055106;28;20044;-89
2022/05/09 03:28:33;;;;;;;31.45;18.15;;;;;;;7.13;100.00;97968.91;5043130;28;20086;-86
2022/05/09 03:31:00;;;;;;;11.73;7.00;;;;;;;7.00;100.00;97928.66;5058009;28;20041;-87
2022/05/09 03:33:27;;;;;;;17.30;7.10;;;;;;;7.13;100.00;97937.88;5039878;28;20128;-87
2022/05/09 03:35:54;;;;;;;19.85;10.55;;;;;;;7.33;100.00;97968.94;5057294;28;20025;-87
2022/05/09 03:38:20;;;;;;;31.95;18.75;;;;;;;7.16;100.00;97939.53;5056542;28;20404;-75
2022/05/09 03:40:46;;;;;;;23.23;15.25;;;;;;;7.31;100.00;97962.81;5034571;28;20090;-74
2022/05/09 03:43:12;;;;;;;31.77;13.75;;;;;;;7.34;100.00;97962.69;5034706;28;20062;-75
2022/05/09 03:45:40;;;;;;;22.42;12.23;;;;;;;7.38;100.00;97974.94;5051611;28;20047;-75
2022/05/09 03:48:07;;;;;;;24.77;12.65;;;;;;;7.44;100.00;97969.38;5051453;28;20079;-74
2022/05/09 03:50:32;;;;;;;31.65;14.48;;;;;;;7.45;100.00;97973.72;5034723;28;20154;-76
2022/05/09 03:52:58;;;;;;;31.42;13.07;;;;;;;7.46;100.00;97970.16;5050790;28;20477;-76
2022/05/09 03:55:24;;;;;;;32.08;11.13;;;;;;;7.58;100.00;97977.59;5051344;28;20024;-76
2022/05/09 03:57:55;;;;;;;38.92;13.52;;;;;;;7.63;100.00;97980.94;5034311;28;20396;-75
2022/05/09 04:00:29;;;;;;;33.72;11.93;;;;;;;7.55;100.00;97972.41;5050963;28;20060;-76
2022/05/09 04:02:54;;;;;;;31.05;11.00;;;;;;;7.50;100.00;97982.41;5034074;28;20113;-76
2022/05/09 04:05:20;;;;;;;25.42;9.20;;;;;;;7.50;100.00;97987.72;5050883;28;20029;-77
2022/05/09 04:07:51;;;;;;;25.35;8.88;;;;;;;7.38;100.00;97985.59;5051010;28;20059;-76
2022/05/09 04:10:20;;;;;;;24.95;8.73;;;;;;;7.38;100.00;97985.59;5049527;28;20025;-76
2022/05/09 04:12:45;;;;;;;21.48;8.38;;;;;;;7.41;100.00;97980.13;5034592;28;20598;-76
2022/05/09 04:17:56;;;;;;;22.95;8.40;;;;;;;7.59;100.00;97997.97;5051050;28;20109;-76
2022/05/09 04:20:23;;;;;;;31.15;9.20;;;;;;;7.73;100.00;97998.25;5050523;28;20027;-76
2022/05/09 04:22:49;;;;;;;22.70;7.57;;;;;;;7.97;100.00;97991.84;5034043;28;20059;-76
2022/05/09 04:25:15;;;;;;;20.65;7.18;;;;;;;8.33;100.00;97999.16;5035323;28;20024;-79
2022/05/09 04:27:41;;;;;;;17.73;7.43;;;;;;;8.33;100.00;97993.81;5034857;28;20029;-76
2022/05/09 04:30:09;;;;;;;16.98;6.85;;;;;;;8.29;100.00;97998.41;5050164;28;20428;-76
2022/05/09 04:32:38;;;;;;;35.20;7.95;;;;;;;8.22;100.00;98002.25;5050481;28;20017;-76
2022/05/09 04:35:04;;;;;;;24.02;8.27;;;;;;;8.16;100.00;98003.41;5033543;28;20090;-77
2022/05/09 04:37:33;;;;;;;32.05;8.80;;;;;;;8.21;100.00;98005.00;5033369;28;20407;-76
2022/05/09 04:39:59;;;;;;;17.90;8.40;;;;;;;8.33;100.00;97993.81;5033768;28;20017;-77
2022/05/09 04:42:25;;;;;;;29.10;8.50;;;;;;;8.45;100.00;98011.91;5049235;28;20025;-77
2022/05/09 04:44:50;;;;;;;29.48;8.43;;;;;;;8.43;100.00;98011.97;5033728;28;20047;-76
2022/05/09 04:47:16;;;;;;;32.58;9.15;;;;;;;8.61;100.00;98010.28;5051150;28;20028;-77
2022/05/09 04:49:42;;;;;;;24.60;8.95;;;;;;;8.72;100.00;98013.28;5049913;28;20474;-77
2022/05/09 04:52:07;;;;;;;22.27;8.50;;;;;;;8.77;98.84;98005.09;5050059;28;20031;-77
2022/05/09 04:54:33;;;;;;;16.92;8.30;;;;;;;8.92;97.71;98007.88;5033440;28;20108;-78
2022/05/09 04:56:58;;;;;;;29.05;8.63;;;;;;;9.06;96.99;98012.53;5033748;28;20456;-77
2022/05/09 04:59:24;;;;;;;23.10;7.85;;;;;;;9.30;95.50;98013.16;5049758;28;20021;-77
2022/05/09 05:01:50;;;;;;;16.67;7.60;;;;;;;9.47;94.44;98013.19;5050153;28;20553;-77
2022/05/09 05:04:17;;;;;;;18.65;7.72;;;;;;;9.71;95.01;98022.63;5033352;28;20021;-78
2022/05/09 05:06:43;;;;;;;22.00;7.55;;;;;;;9.89;92.64;98013.66;5033427;28;20067;-78
2022/05/09 05:09:09;;;;;;;16.02;7.93;;;;;;;9.92;91.12;98005.50;5050018;28;20473;-78
2022/05/09 05:11:35;;;;;;;15.80;7.03;;;;;;;10.12;90.42;98007.97;5033127;28;20052;-78
2022/05/09 05:14:02;;;;;;;19.50;6.88;;;;;;;10.43;88.63;98014.41;5049842;28;20546;-77
2022/05/09 05:19:11;;;;;;;17.13;7.65;;;;;;;10.77;86.38;98016.97;5049705;28;20028;-77
2022/05/09 05:21:37;;;;;;;17.38;7.00;;;;;;;11.70;82.47;98012.53;5049374;28;20033;-76
2022/05/09 05:24:03;;;;;;;13.90;6.32;;;;;;;13.56;72.80;98009.66;5032896;28;20040;-77
2022/05/09 05:26:28;;;;;;;11.05;6.32;;;;;;;15.43;63.18;98001.81;5049148;28;20041;-78
2022/05/09 05:28:54;;;;;;;18.45;6.00;;;;;;;17.14;56.56;98001.91;5049707;28;20495;-78
2022/05/09 05:31:31;;;;;;;16.58;9.88;;;;;;;17.81;53.10;97989.16;5032738;28;20397;-78
2022/05/09 05:33:57;;;;;;;18.17;6.63;;;;;;;18.49;50.10;97999.50;5032664;28;20033;-79
2022/05/09 05:36:23;;;;;;;19.42;6.85;;;;;;;18.22;50.21;97996.44;5049398;28;20112;-77
2022/05/09 05:38:51;;;;;;;18.08;6.03;;;;;;;18.33;50.21;97999.94;5032602;28;20028;-78
2022/05/09 05:41:22;;;;;;;11.88;6.25;;;;;;;19.22;48.00;97999.31;5033147;28;20040;-77
2022/05/09 05:43:48;;;;;;;24.55;9.32;;;;;;;20.10;45.57;97984.91;5049653;28;20095;-77
2022/05/09 05:46:14;;;;;;;13.90;7.50;;;;;;;21.74;42.67;97986.97;5049341;28;20123;-78
2022/05/09 05:48:41;;;;;;;21.85;7.35;;;;;;;21.50;42.23;97978.53;5032504;28;20036;-78
2022/05/09 05:51:07;;;;;;;12.63;8.40;;;;;;;21.46;42.16;97977.97;5032903;28;20025;-78
2022/05/09 05:53:34;;;;;;;17.33;8.80;;;;;;;21.80;41.52;97986.34;5052098;28;20568;-78
2022/05/09 05:56:00;;;;;;;14.55;7.75;;;;;;;21.55;41.46;97970.75;5055736;28;20021;-78
2022/05/09 05:58:28;;;;;;;14.10;8.10;;;;;;;20.82;42.44;97986.13;5055840;28;20583;-77
2022/05/09 06:00:55;;;;;;;17.98;8.50;;;;;;;22.20;40.92;97979.63;5056231;28;20025;-78
2022/05/09 06:03:20;;;;;;;18.00;9.52;;;;;;;23.40;38.67;97976.03;5056174;28;20025;-78
2022/05/09 06:05:49;;;;;;;29.90;9.15;;;;;;;22.60;38.84;97975.38;5056356;28;20688;-78
2022/05/09 06:08:15;;;;;;;27.45;7.93;;;;;;;22.56;39.48;97982.13;5039579;28;20033;-78
2022/05/09 06:10:41;;;;;;;17.45;7.60;;;;;;;23.33;38.56;97985.88;5055690;28;20462;-78
2022/05/09 06:13:07;;;;;;;15.30;7.20;;;;;;;24.87;36.42;97974.22;5039397;28;20110;-78
2022/05/09 06:15:33;;;;;;;15.02;6.95;;;;;;;24.75;35.61;97976.44;5056560;28;20549;-76
2022/05/09 06:18:00;;;;;;;16.15;6.95;;;;;;;23.92;37.10;97988.50;5039672;28;20037;-78
2022/05/09 06:20:28;;;;;;;19.70;8.25;;;;;;;22.99;38.91;97994.03;5040318;28;20394;-78
2022/05/09 06:22:54;;;;;;;15.77;7.82;;;;;;;22.15;40.89;98002.75;5057019;28;20024;-79
2022/05/09 06:25:21;;;;;;;30.67;8.20;;;;;;;23.87;38.66;97999.06;5056554;28;20032;-79
2022/05/09 06:27:47;;;;;;;20.63;7.70;;;;;;;24.26;37.72;97983.81;5055555;28;20506;-77
2022/05/09 06:30:16;;;;;;;12.65;6.80;;;;;;;24.18;37.78;97994.72;5055527;28;20045;-77
2022/05/09 06:32:42;;;;;;;13.57;7.38;;;;;;;25.06;36.34;97993.00;5039189;28;20491;-77
2022/05/09 06:35:10;;;;;;;13.52;7.50;;;;;;;25.84;34.89;97987.59;5051768;28;20067;-77
2022/05/09 06:37:38;;;;;;;10.68;7.28;;;;;;;24.02;36.68;97981.00;5055645;28;20048;-77
2022/05/09 06:40:05;;;;;;;16.05;8.30;;;;;;;24.14;36.74;97978.84;5055681;28;20036;-77
2022/05/09 06:42:31;;;;;;;10.82;7.20;;;;;;;24.81;36.55;97983.13;5057013;28;20495;-78
2022/05/09 06:44:57;;;;;;;13.55;7.90;;;;;;;25.80;35.03;97980.75;5055702;28;20028;-77
2022/05/09 06:47:23;;;;;;;17.83;7.63;;;;;;;26.08;34.69;97979.22;5055852;28;20086;-78
2022/05/09 06:49:48;;;;;;;15.25;7.75;;;;;;;26.42;35.69;97992.53;5055639;28;20035;-77
2022/05/09 06:52:14;;;;;;;10.38;6.13;;;;;;;26.39;33.70;97980.03;5056782;28;20336;-78
2022/05/09 06:54:40;;;;;;;13.18;6.80;;;;;;;26.84;33.33;97975.56;5055763;28;20039;-77
2022/05/09 06:57:06;;;;;;;13.82;7.03;;;;;;;25.83;33.86;97973.03;5055401;28;20032;-78
2022/05/09 06:59:32;;;;;;;12.43;5.30;;;;;;;24.23;36.63;97995.09;5055174;28;20112;-77
2022/05/09 07:01:59;;;;;;;9.70;5.53;;;;;;;25.32;35.27;97993.59;5038710;28;20036;-77
2022/05/09 07:04:24;;;;;;;9.77;4.90;;;;;;;24.74;35.92;97980.19;5054231;28;20021;-76
2022/05/09 07:06:50;;;;;;;14.55;5.55;;;;;;;24.71;35.40;97985.16;5051783;28;20033;-77
2022/05/09 07:09:16;;;;;;;7.55;4.90;;;;;;;25.93;34.40;97980.16;5052263;28;20025;-77
2022/05/09 07:11:42;;;;;;;14.10;5.80;;;;;;;26.24;33.21;97981.84;5052196;28;20017;-76
2022/05/09 07:14:09;;;;;;;7.57;4.40;;;;;;;27.31;33.68;97983.47;5035302;28;20024;-78
2022/05/09 07:16:34;;;;;;;9.65;5.22;;;;;;;28.51;30.94;97964.44;5035948;28;20078;-78
2022/05/09 07:19:00;;;;;;;7.68;4.55;;;;;;;28.56;30.41;97954.72;5052087;28;20025;-77
2022/05/09 07:21:26;;;;;;;8.10;4.65;;;;;;;28.96;30.80;97970.56;5052414;28;20108;-77
2022/05/09 07:23:52;;;;;;;10.43;4.90;;;;;;;29.80;29.00;97963.03;5052193;28;20056;-77
2022/05/09 07:26:17;;;;;;;10.98;4.82;;;;;;;30.81;27.30;97956.50;5051910;28;20447;-78
2022/05/09 07:28:43;;;;;;;9.15;4.53;;;;;;;30.29;28.38;97955.38;5035266;28;20112;-78
2022/05/09 07:31:10;;;;;;;12.15;5.00;;;;;;;30.39;28.33;97961.38;5051405;28;20091;-77
2022/05/09 07:33:36;;;;;;;10.30;4.80;;;;;;;30.82;28.15;97958.22;5051745;28;20104;-77
2022/05/09 07:36:03;;;;;;;7.55;4.07;;;;;;;30.30;27.52;97948.75;5051770;28;20098;-78
2022/05/09 07:38:28;;;;;;;13.07;4.18;;;;;;;30.49;27.79;97953.50;5051543;28;20025;-76
2022/05/09 07:40:54;;;;;;;9.07;4.20;;;;;;;31.23;27.11;97950.53;5051596;28;20378;-78
2022/05/09 07:43:23;;;;;;;8.13;3.90;;;;;;;31.75;26.45;97951.50;5052649;28;20506;-78
2022/05/09 07:45:54;;;;;;;8.95;3.90;;;;;;;31.48;25.80;97943.25;5034986;28;20525;-78
2022/05/09 07:48:20;;;;;;;9.15;3.60;;;;;;;30.14;26.49;97938.13;5051519;28;20031;-78
2022/05/09 07:50:53;;;;;;;9.18;3.42;;;;;;;29.82;27.75;97953.53;5051488;28;20032;-77
2022/05/09 07:53:22;;;;;;;6.43;3.67;;;;;;;31.78;25.92;97951.88;5034648;28;20036;-78
2022/05/09 07:55:48;;;;;;;9.68;3.58;;;;;;;31.72;25.82;97946.41;5034315;28;20048;-77
2022/05/09 07:58:14;;;;;;;11.02;3.50;;;;;;;31.34;26.19;97955.41;5034400;28;20062;-78
2022/05/09 08:00:41;;;;;;;9.50;3.83;;;;;;;30.34;27.36;97958.34;5051081;28;20029;-77
2022/05/09 08:03:16;;;;;;;11.15;3.95;;;;;;;30.59;26.93;97955.84;5051062;28;20020;-77
2022/05/09 08:05:42;;;;;;;10.00;4.13;;;;;;;31.93;25.66;97954.41;5051259;28;20416;-78
2022/05/09 08:08:10;;;;;;;10.52;3.92;;;;;;;33.40;24.15;97944.59;5050671;28;20063;-77
2022/05/09 08:10:36;;;;;;;8.43;3.45;;;;;;;33.62;23.71;97950.56;5051920;28;20120;-78
2022/05/09 08:13:03;;;;;;;5.15;3.53;;;;;;;32.83;24.08;97942.97;5051353;28;20028;-77
2022/05/09 08:15:31;;;;;;;10.60;3.60;;;;;;;31.98;24.35;97936.03;5034790;28;20475;-77
2022/05/09 08:17:58;;;;;;;8.30;3.38;;;;;;;31.60;24.94;97946.22;5034697;28;20028;-77
2022/05/09 08:20:24;;;;;;;13.25;4.63;;;;;;;32.48;24.57;97950.06;5034535;28;20529;-77
2022/05/09 08:22:59;;;;;;;8.18;3.22;;;;;;;34.30;22.51;97940.91;5050897;28;20423;-78
2022/05/09 08:25:25;;;;;;;11.00;3.22;;;;;;;35.12;21.83;97943.94;5051215;28;20483;-78
2022/05/09 08:27:51;;;;;;;4.05;3.00;;;;;;;34.27;22.95;97935.84;5051472;28;20057;-78
2022/05/09 08:30:18;;;;;;;8.27;3.05;;;;;;;33.42;23.54;97944.34;5051343;28;20076;-77
2022/05/09 08:32:43;;;;;;;6.93;3.60;;;;;;;32.64;24.25;97942.06;5051183;28;20544;-77
2022/05/09 08:35:10;;;;;;;8.85;3.70;;;;;;;31.15;27.20;97959.06;5050695;28;20111;-78
2022/05/09 08:37:36;;;;;;;4.65;3.20;;;;;;;32.06;25.34;97957.09;5050931;28;20138;-78
2022/05/09 08:40:03;;;;;;;4.63;2.88;;;;;;;31.67;25.50;97958.97;5034027;28;20075;-77
2022/05/09 08:42:58;;;;;;;5.47;3.03;;;;;;;31.90;23.87;97939.03;5033785;28;20045;-78
2022/05/09 08:45:37;;;;;;;8.55;2.72;;;;;;;32.39;23.36;97934.78;5050664;28;20040;-77
2022/05/09 08:48:12;;;;;;;14.50;4.80;;;;;;;32.60;23.57;97942.75;5050735;28;20064;-77
2022/05/09 08:50:49;;;;;;;13.32;3.70;;;;;;;32.66;21.98;97936.31;5066792;28;20021;-78
2022/05/09 08:53:23;;;;;;;5.15;2.60;;;;;;;34.14;20.95;97930.50;5066790;28;20386;-77
2022/05/09 08:55:51;;;;;;;6.35;3.08;;;;;;;33.29;22.19;97931.47;5050359;28;20111;-79
2022/05/09 08:58:37;;;;;;;7.25;2.30;;;;;;;34.49;20.82;97933.38;5046729;28;20033;-78
2022/05/09 09:01:08;;;;;;;3.72;2.58;;;;;;;34.63;20.58;97926.56;5043815;28;20017;-79
2022/05/09 09:03:37;;;;;;;5.25;2.60;;;;;;;34.92;19.84;97932.28;5033681;28;20029;-78
2022/05/09 09:06:05;;;;;;;4.63;2.80;;;;;;;34.27;21.57;97929.47;5033983;28;20398;-78
2022/05/09 09:08:49;;;;;;;6.30;2.80;;;;;;;32.03;22.63;97927.94;5066863;28;20021;-78
2022/05/09 09:11:22;;;;;;;3.33;2.33;;;;;;;32.14;22.76;97923.63;5066736;28;20037;-77
2022/05/09 09:14:10;;;;;;;3.88;2.58;;;;;;;31.23;24.03;97931.16;5033320;28;20025;-77
2022/05/09 09:16:44;;;;;;;3.22;2.42;;;;;;;30.49;23.75;97916.75;5050086;28;20421;-78
2022/05/09 09:19:47;;;;;;;4.95;2.70;;;;;;;31.66;23.55;97925.97;5066225;28;20029;-78
2022/05/09 09:22:28;;;;;;;5.78;2.50;;;;;;;32.67;22.84;97927.75;5066314;28;20112;-78
2022/05/09 09:25:08;;;;;;;6.30;2.92;;;;;;;33.22;22.13;97925.97;5032758;28;20075;-78
2022/05/09 09:27:47;;;;;;;5.70;2.30;;;;;;;31.75;23.11;97915.53;5049350;28;20128;-78
2022/05/09 09:30:19;;;;;;;3.33;2.40;;;;;;;31.71;23.20;97919.78;5049424;28;20465;-78
2022/05/09 09:33:03;;;;;;;7.38;2.72;;;;;;;32.72;22.52;97914.06;5032677;28;20071;-78
2022/05/09 09:35:50;;;;;;;6.15;2.30;;;;;;;32.57;21.77;97908.03;5049519;28;20028;-78
2022/05/09 09:38:40;;;;;;;3.35;2.10;;;;;;;31.63;22.76;97909.78;5044171;28;20101;-78
2022/05/09 09:41:28;;;;;;;7.00;2.05;;;;;;;32.73;22.85;97903.84;5065799;28;20082;-78
2022/05/09 09:44:12;;;;;;;6.05;2.22;;;;;;;33.10;22.74;97916.72;5032895;28;20029;-77
2022/05/09 09:47:17;;;;;;;6.55;2.63;;;;;;;32.91;22.84;97911.34;5049435;28;20040;-78
2022/05/09 09:49:43;;;;;;;6.60;2.60;;;;;;;32.80;22.68;97909.31;5045254;28;20036;-78
2022/05/09 09:52:16;;;;;;;3.42;2.20;;;;;;;32.25;22.31;97899.91;5032717;28;20246;-78
2022/05/09 09:54:53;;;;;;;3.85;2.22;;;;;;;32.49;22.76;97904.63;5049109;28;20095;-77
2022/05/09 09:57:23;;;;;;;10.32;2.53;;;;;;;31.18;23.77;97897.81;5049100;28;20024;-78
2022/05/09 09:59:49;;;;;;;4.30;2.30;;;;;;;30.98;22.92;97894.22;5049096;28;20029;-78
2022/05/09 10:02:25;;;;;;;8.55;2.70;;;;;;;30.86;23.62;97905.06;5049222;28;20025;-78
2022/05/09 10:04:56;;;;;;;5.22;1.98;;;;;;;30.73;22.76;97885.75;5048757;28;20025;-78
2022/05/09 10:07:33;;;;;;;3.55;2.03;;;;;;;31.04;23.09;97896.16;5032337;28;20368;-78
2022/05/09 10:10:10;;;;;;;4.85;2.38;;;;;;;32.06;21.95;97896.19;5048979;28;20503;-78
2022/05/09 10:12:37;;;;;;;11.23;2.40;;;;;;;32.40;22.39;97894.91;5065482;28;20029;-78
2022/05/09 10:15:18;;;;;;;8.02;2.85;;;;;;;32.68;21.68;97890.66;5032277;28;20119;-78
2022/05/09 10:17:44;;;;;;;26.33;2.67;;;;;;;33.59;21.18;97881.63;5065215;28;20115;-78
2022/05/09 10:20:40;;;;;;;8.48;2.60;;;;;;;34.07;20.62;97885.25;5049048;28;20064;-77
2022/05/09 10:25:59;;;;;;;4.60;2.20;;;;;;;34.59;20.17;97889.19;5050489;28;20067;-77
2022/05/09 10:28:30;;;;;;;4.70;2.03;;;;;;;33.03;21.38;97887.34;5031858;28;20111;-78
2022/05/09 10:31:10;;;;;;;15.73;3.05;;;;;;;32.71;21.64;97879.09;5048783;28;20045;-78
2022/05/09 10:33:50;;;;;;;7.70;1.95;;;;;;;31.12;23.04;97876.56;5049062;28;20029;-78
2022/05/09 10:36:21;;;;;;;4.93;1.80;;;;;;;30.11;24.71;97888.88;5048797;28;20408;-78
2022/05/09 10:38:54;;;;;;;8.55;2.15;;;;;;;31.81;22.08;97876.72;5048709;28;20033;-78
2022/05/09 10:41:20;;;;;;;5.65;2.30;;;;;;;32.78;20.61;97880.97;5068222;28;20028;-79
2022/05/09 10:43:54;;;;;;;3.47;2.10;;;;;;;33.97;19.86;97876.63;5053766;28;20107;-78
2022/05/09 10:46:21;;;;;;;4.63;2.08;;;;;;;34.75;19.40;97865.41;5069064;28;20068;-78
2022/05/09 10:49:04;;;;;;;11.88;2.50;;;;;;;35.83;19.30;97874.88;5035968;28;20187;-79
2022/05/09 10:51:43;;;;;;;6.60;2.38;;;;;;;36.44;18.16;97859.34;5035943;28;20028;-79
2022/05/09 10:54:44;;;;;;;6.22;2.92;;;;;;;36.28;18.34;97860.16;5036029;28;20489;-78
2022/05/09 10:57:16;;;;;;;3.70;2.00;;;;;;;36.08;17.04;97849.50;5033096;28;20106;-78
2022/05/09 10:59:42;;;;;;;11.10;2.33;;;;;;;35.03;17.73;97861.91;5035623;28;20476;-79
2022/05/09 11:02:23;;;;;;;4.68;2.25;;;;;;;33.11;19.18;97842.69;5035974;28;20499;-78
2022/05/09 11:04:49;;;;;;;6.50;2.20;;;;;;;34.56;18.49;97847.94;5052297;28;20028;-79
2022/05/09 11:07:29;;;;;;;22.00;3.15;;;;;;;35.31;17.66;97842.53;5052195;28;20399;-79
2022/05/09 11:10:29;;;;;;;6.28;2.28;;;;;;;36.19;17.61;97853.28;5068649;28;20052;-78
2022/05/09 11:13:22;;;;;;;9.25;2.15;;;;;;;37.74;16.76;97842.09;5068496;28;20488;-79
2022/05/09 11:16:01;;;;;;;5.15;2.10;;;;;;;38.90;15.67;97848.91;5068283;28;20029;-79
2022/05/09 11:19:03;;;;;;;10.30;2.72;;;;;;;38.57;16.13;97841.63;5051926;28;20029;-79
2022/05/09 11:21:58;;;;;;;4.97;2.03;;;;;;;35.85;17.09;97816.97;5052394;28;20045;-78
2022/05/09 11:24:29;;;;;;;6.80;2.45;;;;;;;35.97;17.92;97836.41;5051896;28;20044;-79
2022/05/09 11:27:07;;;;;;;8.70;2.63;;;;;;;35.32;18.87;97828.38;5053094;28;20032;-79
2022/05/09 11:29:38;;;;;;;12.68;2.70;;;;;;;36.48;17.79;97837.38;5068384;28;20508;-79
2022/05/09 11:32:35;;;;;;;3.28;1.90;;;;;;;36.07;17.19;97822.72;5052169;28;20032;-79
2022/05/09 11:35:23;;;;;;;4.72;1.70;;;;;;;34.66;17.53;97823.22;5051649;28;20057;-79
2022/05/09 11:38:14;;;;;;;5.63;1.95;;;;;;;35.12;17.82;97811.25;5068165;28;20033;-79
2022/05/09 11:41:15;;;;;;;8.93;2.43;;;;;;;35.72;17.62;97822.84;5068372;28;20477;-78
2022/05/09 11:43:43;;;;;;;2.40;1.70;;;;;;;35.49;17.08;97816.47;5034641;28;20454;-78
2022/05/09 11:46:27;;;;;;;5.53;1.80;;;;;;;35.76;17.44;97812.03;5068268;28;20484;-79
2022/05/09 11:49:17;;;;;;;3.55;2.20;;;;;;;34.14;18.20;97807.41;5068275;28;20123;-79
2022/05/09 11:51:52;;;;;;;10.73;2.20;;;;;;;35.09;17.11;97811.72;5034310;28;20404;-79
2022/05/09 11:54:23;;;;;;;5.50;2.40;;;;;;;33.83;18.33;97813.19;5034967;28;20095;-78
2022/05/09 11:56:52;;;;;;;6.15;2.30;;;;;;;33.44;18.64;97809.03;5052135;28;20029;-78